Time;durP1;ratioP1;P1;durP2;ratioP2;P2;SDS_P1;SDS_P2;PMS_P1;PMS_P2;Temp;Humidity;BMP_temperature;BMP_pressure;BME280_temperature;BME280_humidity;BME280_pressure;Samples;Min_cycle;Max_cycle;Signal;HPM_P1;HPM_P2
2022/08/12 00:52:12;;;;;;;10.80;9.93;;;17.90;66.50;;;;;;2619519;54;20954;-80
2022/08/12 00:58:04;;;;;;;10.20;9.40;;;17.80;70.70;;;;;;2617862;54;20394;-81
2022/08/12 01:13:21;;;;;;;10.33;9.37;;;17.60;83.40;;;;;;2617805;54;20925;-79
2022/08/12 01:19:11;;;;;;;9.97;9.07;;;17.60;89.40;;;;;;2617375;54;20432;-80
2022/08/12 01:31:28;;;;;;;10.20;9.27;;;17.40;92.80;;;;;;2618090;54;20499;-80
2022/08/12 01:37:18;;;;;;;9.50;8.70;;;17.30;95.50;;;;;;2617558;54;20410;-79
2022/08/12 01:43:08;;;;;;;9.57;8.80;;;17.20;94.20;;;;;;2617325;54;20375;-79
2022/08/12 01:55:36;;;;;;;14.60;10.27;;;17.00;97.70;;;;;;2616553;39;20845;-79
2022/08/12 01:58:15;;;;;;;9.87;8.83;;;16.90;98.90;;;;;;2617301;46;20399;-79
2022/08/12 02:16:49;;;;;;;11.37;10.47;;;16.80;99.90;;;;;;2618369;54;20395;-79
2022/08/12 02:22:41;;;;;;;10.83;9.77;;;16.70;99.90;;;;;;2618283;54;20947;-79
2022/08/12 02:28:29;;;;;;;10.97;9.97;;;16.60;99.90;;;;;;2617128;54;20403;-74
2022/08/12 02:34:16;;;;;;;10.90;10.10;;;16.50;99.90;;;;;;2617121;54;20423;-78
2022/08/12 02:37:19;;;;;;;10.90;10.00;;;16.60;99.90;;;;;;2617146;54;20391;-73
2022/08/12 02:39:48;;;;;;;11.10;9.90;;;16.50;99.90;;;;;;2617106;47;20995;-73
2022/08/12 02:45:44;;;;;;;10.90;9.80;;;16.40;99.90;;;;;;2617115;54;20466;-74
2022/08/12 02:51:33;;;;;;;11.00;10.00;;;16.40;99.90;;;;;;2617600;54;20435;-80
2022/08/12 02:57:21;;;;;;;10.80;9.77;;;16.20;99.90;;;;;;2616307;54;20545;-78
2022/08/12 03:00:24;;;;;;;10.97;9.97;;;16.30;99.90;;;;;;2615977;54;20418;-79
2022/08/12 03:12:25;;;;;;;10.43;9.60;;;16.10;99.90;;;;;;2617004;54;20385;-80
2022/08/12 03:24:28;;;;;;;11.53;10.53;;;16.00;99.90;;;;;;2616931;54;20435;-79
2022/08/12 03:30:18;;;;;;;11.13;10.33;;;16.00;99.90;;;;;;2617305;54;20418;-80
2022/08/12 03:36:07;;;;;;;12.13;10.90;;;16.00;99.90;;;;;;2616994;46;20389;-80
2022/08/12 03:41:58;;;;;;;11.80;10.83;;;16.10;99.90;;;;;;2616724;54;20503;-80
2022/08/12 04:00:23;;;;;;;13.77;11.87;;;15.70;99.90;;;;;;2617482;54;20452;-80
2022/08/12 04:05:37;;;;;;;15.53;12.43;;;15.80;99.90;;;;;;2617074;54;20951;-80
2022/08/12 04:17:32;;;;;;;12.37;11.47;;;15.80;99.90;;;;;;2618584;39;20844;-80
2022/08/12 04:23:24;;;;;;;12.57;11.23;;;15.70;99.90;;;;;;2618423;54;21000;-79
2022/08/12 04:29:13;;;;;;;12.97;11.77;;;15.70;99.90;;;;;;2618247;54;20406;-79
2022/08/12 04:35:02;;;;;;;13.20;11.73;;;15.70;99.90;;;;;;2618156;54;20390;-79
2022/08/12 04:40:50;;;;;;;12.23;11.13;;;15.90;99.90;;;;;;2618252;54;20378;-80
2022/08/12 04:46:38;;;;;;;12.83;11.63;;;16.00;99.90;;;;;;2618039;39;20729;-80
2022/08/12 04:52:25;;;;;;;11.80;10.80;;;16.00;99.90;;;;;;2617316;54;20156;-79
2022/08/12 05:01:35;;;;;;;14.60;13.30;;;16.30;99.90;;;;;;2617540;54;20497;-80
2022/08/12 05:04:02;;;;;;;13.60;12.30;;;16.30;99.90;;;;;;2616002;47;20953;-80
2022/08/12 05:06:28;;;;;;;14.43;13.23;;;16.40;99.90;;;;;;2615794;47;20533;-81
2022/08/12 05:08:55;;;;;;;14.53;13.03;;;16.50;99.90;;;;;;2616593;54;20431;-80
2022/08/12 05:11:24;;;;;;;14.63;12.53;;;16.70;99.90;;;;;;2617433;46;20153;-79
2022/08/12 05:17:11;;;;;;;15.87;12.90;;;17.00;99.90;;;;;;2617151;46;20941;-79
2022/08/12 05:23:09;;;;;;;16.33;13.27;;;17.50;99.90;;;;;;2617219;54;20167;-79
2022/08/12 05:28:56;;;;;;;19.07;12.60;;;18.00;99.90;;;;;;2617345;54;20421;-80
2022/08/12 05:34:44;;;;;;;13.97;12.57;;;18.50;99.90;;;;;;2617463;54;20233;-80
2022/08/12 05:40:32;;;;;;;14.50;13.20;;;19.80;84.90;;;;;;2618771;54;20364;-79
2022/08/12 05:46:23;;;;;;;16.30;12.43;;;21.30;59.40;;;;;;2618474;54;20627;-79
2022/08/12 05:52:11;;;;;;;14.83;13.23;;;22.10;35.40;;;;;;2616980;54;20388;-79
2022/08/12 05:58:00;;;;;;;28.90;12.77;;;22.50;32.70;;;;;;2616713;54;20118;-79
2022/08/12 06:03:48;;;;;;;18.27;13.87;;;23.00;22.90;;;;;;2617348;39;20779;-79
2022/08/12 06:09:35;;;;;;;16.07;13.13;;;23.20;19.70;;;;;;2616171;54;21070;-80
2022/08/12 06:15:23;;;;;;;19.70;14.37;;;23.50;15.60;;;;;;2616993;54;20134;-80
2022/08/12 06:21:15;;;;;;;16.43;13.57;;;24.20;10.80;;;;;;2617811;31;20598;-80
2022/08/12 06:27:02;;;;;;;21.33;13.10;;;24.00;10.30;;;;;;2617839;39;20768;-80
2022/08/12 06:32:50;;;;;;;13.87;12.47;;;24.90;6.30;;;;;;2617194;54;20134;-81
2022/08/12 06:38:37;;;;;;;14.57;13.10;;;25.20;3.80;;;;;;2617318;54;20583;-79
2022/08/12 06:44:24;;;;;;;15.13;12.43;;;25.30;2.80;;;;;;2616923;54;20138;-79
2022/08/12 06:50:15;;;;;;;15.67;11.77;;;25.90;4.10;;;;;;2617187;54;20157;-80
2022/08/12 06:56:03;;;;;;;13.13;11.83;;;26.00;1.10;;;;;;2618427;54;20485;-79
2022/08/12 07:01:51;;;;;;;12.87;11.37;;;25.90;1.00;;;;;;2618752;39;20794;-80
2022/08/12 07:07:38;;;;;;;13.27;12.17;;;26.70;1.00;;;;;;2616731;54;20368;-80
2022/08/12 07:10:04;;;;;;;12.30;11.00;;;26.90;1.00;;;;;;2616015;47;21041;-80
2022/08/12 07:12:30;;;;;;;12.47;10.60;;;27.40;1.00;;;;;;2616835;47;20301;-79
2022/08/12 07:18:19;;;;;;;12.60;10.17;;;27.90;1.00;;;;;;2616953;54;20485;-80
2022/08/12 07:24:06;;;;;;;10.60;9.70;;;27.40;1.00;;;;;;2616295;54;20600;-80
2022/08/12 07:29:53;;;;;;;13.17;10.03;;;27.90;1.00;;;;;;2616536;54;20124;-81
2022/08/12 07:35:44;;;;;;;12.50;10.70;;;28.70;1.00;;;;;;2617369;31;20630;-80
2022/08/12 07:41:31;;;;;;;10.63;9.50;;;28.60;1.00;;;;;;2618171;39;20780;-79
2022/08/12 07:47:19;;;;;;;10.13;9.13;;;28.90;1.00;;;;;;2617740;54;20438;-79
2022/08/12 07:53:07;;;;;;;13.93;10.17;;;29.10;1.00;;;;;;2618416;54;20117;-80
2022/08/12 07:58:57;;;;;;;12.33;10.43;;;29.50;1.00;;;;;;2617953;54;20114;-80
2022/08/12 08:12:52;;;;;;;12.27;9.43;;;29.90;1.00;;;;;;2617213;54;20430;-80
2022/08/12 08:17:05;;;;;;;8.27;7.77;;;30.30;1.00;;;;;;2616115;54;20376;-79
2022/08/12 08:22:52;;;;;;;9.60;8.80;;;30.70;1.00;;;;;;2617122;54;20371;-80
2022/08/12 08:28:39;;;;;;;10.10;8.37;;;31.20;1.00;;;;;;2617379;54;20346;-80
2022/08/12 08:34:28;;;;;;;17.33;10.50;;;30.80;1.00;;;;;;2617925;39;20688;-81
2022/08/12 08:37:31;;;;;;;15.93;10.03;;;30.60;1.00;;;;;;2617576;46;20391;-81
2022/08/12 08:42:35;;;;;;;13.03;8.73;;;31.30;1.00;;;;;;2616882;47;20399;-80
2022/08/12 08:46:04;;;;;;;9.60;8.50;;;30.20;1.00;;;;;;2616776;54;20401;-80
2022/08/12 08:51:52;;;;;;;8.50;7.97;;;31.50;1.00;;;;;;2617467;54;20388;-80
2022/08/12 09:01:47;;;;;;;8.50;7.90;;;31.90;1.00;;;;;;2616935;54;20394;-80
2022/08/12 09:13:26;;;;;;;8.07;7.40;;;31.90;1.00;;;;;;2617559;54;20889;-80
2022/08/12 09:13:43;;;;;;;8.00;7.30;;;31.90;1.00;;;;;;2616136;47;20402;-80
2022/08/12 09:16:27;;;;;;;7.47;6.97;;;32.80;1.00;;;;;;2615888;39;20817;-80
2022/08/12 09:18:52;;;;;;;7.13;6.53;;;32.80;1.00;;;;;;2617168;46;20161;-80
2022/08/12 09:24:40;;;;;;;8.13;7.23;;;32.00;1.00;;;;;;2617161;54;20138;-80
2022/08/12 09:30:29;;;;;;;7.17;6.77;;;31.40;1.00;;;;;;2617200;54;20119;-79
2022/08/12 09:36:17;;;;;;;8.03;7.43;;;31.90;1.00;;;;;;2617438;54;20493;-80
2022/08/12 09:48:15;;;;;;;6.80;6.50;;;32.70;1.00;;;;;;2616904;54;20370;-80
2022/08/12 09:54:02;;;;;;;7.40;6.80;;;32.20;1.00;;;;;;2617271;54;20363;-81
2022/08/12 09:59:50;;;;;;;6.90;6.30;;;32.50;1.00;;;;;;2617254;54;20399;-80
2022/08/12 10:05:39;;;;;;;7.13;6.63;;;32.60;1.00;;;;;;2617382;54;20118;-81
2022/08/12 10:17:32;;;;;;;6.83;6.37;;;33.30;1.00;;;;;;2615694;54;22069;-80
2022/08/12 10:23:19;;;;;;;7.20;6.70;;;32.10;1.00;;;;;;2616669;54;20182;-80
2022/08/12 10:35:15;;;;;;;7.80;7.20;;;32.80;1.00;;;;;;2616826;54;20422;-80
2022/08/12 10:47:08;;;;;;;7.43;6.80;;;32.20;1.00;;;;;;2617140;54;20952;-80
2022/08/12 10:52:55;;;;;;;7.70;7.00;;;32.70;1.00;;;;;;2617357;54;20142;-80
2022/08/12 10:58:44;;;;;;;7.03;6.60;;;33.10;1.00;;;;;;2617714;39;20640;-81
2022/08/12 11:04:34;;;;;;;7.77;7.17;;;32.90;1.00;;;;;;2618888;54;20374;-81
2022/08/12 11:10:22;;;;;;;6.87;6.47;;;33.50;1.00;;;;;;2619125;54;20375;-81
2022/08/12 11:16:09;;;;;;;7.50;6.87;;;33.60;1.00;;;;;;2616962;54;20670;-80
2022/08/12 11:25:18;;;;;;;6.90;6.30;;;33.20;1.00;;;;;;2617365;39;20796;-81
2022/08/12 11:31:07;;;;;;;6.97;6.57;;;33.20;1.00;;;;;;2616927;54;20146;-80
2022/08/12 11:36:59;;;;;;;7.93;7.23;;;33.50;1.00;;;;;;2617029;54;20414;-81
2022/08/12 11:42:47;;;;;;;7.40;6.70;;;34.30;1.00;;;;;;2616898;54;20479;-80
2022/08/12 11:48:38;;;;;;;6.93;6.60;;;33.90;1.00;;;;;;2617223;54;20119;-81
2022/08/12 11:54:25;;;;;;;6.73;6.43;;;33.30;1.00;;;;;;2617522;54;20389;-81
2022/08/12 12:00:13;;;;;;;6.73;6.20;;;34.30;1.00;;;;;;2618345;54;20238;-80
2022/08/12 12:06:00;;;;;;;7.27;6.67;;;33.90;1.00;;;;;;2618923;54;20869;-80
2022/08/12 12:11:47;;;;;;;6.93;6.33;;;33.50;1.00;;;;;;2618785;54;20248;-80
2022/08/12 12:17:39;;;;;;;7.40;6.80;;;34.10;1.00;;;;;;2618412;54;20147;-81
2022/08/12 12:20:42;;;;;;;9.50;6.20;;;34.30;1.00;;;;;;2618455;54;20445;-82
2022/08/12 12:23:08;;;;;;;7.03;6.60;;;33.90;1.00;;;;;;2618483;47;20386;-80
2022/08/12 12:28:55;;;;;;;6.63;6.20;;;34.50;1.00;;;;;;2618047;54;20232;-81
2022/08/12 12:34:42;;;;;;;7.00;6.40;;;34.30;1.00;;;;;;2618408;54;20126;-82
2022/08/12 12:37:26;;;;;;;10.23;7.40;;;34.50;1.00;;;;;;2618597;46;20395;-81
2022/08/12 12:39:52;;;;;;;7.23;6.83;;;34.30;1.00;;;;;;2617996;54;20154;-81
2022/08/12 12:45:41;;;;;;;8.63;6.23;;;34.90;1.00;;;;;;2618408;54;20210;-82
2022/08/12 12:51:29;;;;;;;6.30;5.90;;;34.00;1.00;;;;;;2618356;54;20407;-82
2022/08/12 12:57:16;;;;;;;6.30;5.80;;;33.90;1.00;;;;;;2618230;54;20114;-82
2022/08/12 13:03:03;;;;;;;6.63;6.20;;;33.70;1.00;;;;;;2618116;54;20156;-81
2022/08/12 13:08:52;;;;;;;6.70;6.40;;;34.00;1.00;;;;;;2616886;54;20156;-81
2022/08/12 13:14:39;;;;;;;7.83;6.00;;;33.90;1.00;;;;;;2617143;54;20383;-81
2022/08/12 13:20:30;;;;;;;6.30;6.00;;;33.60;1.00;;;;;;2617419;54;20194;-82
2022/08/12 13:22:56;;;;;;;6.50;6.00;;;34.20;1.00;;;;;;2615288;46;21350;-82
2022/08/12 13:25:23;;;;;;;6.17;5.87;;;33.70;1.00;;;;;;2615512;54;20407;-81
2022/08/12 13:31:11;;;;;;;7.33;6.53;;;33.80;1.00;;;;;;2617083;54;20403;-82
2022/08/12 13:36:58;;;;;;;6.60;6.00;;;33.60;1.00;;;;;;2617145;54;21192;-81
2022/08/12 13:42:47;;;;;;;6.37;5.87;;;34.00;1.00;;;;;;2617021;54;20122;-81
2022/08/12 13:48:35;;;;;;;9.00;6.70;;;34.00;1.00;;;;;;2616912;54;20375;-82
2022/08/12 13:57:44;;;;;;;6.13;5.67;;;33.10;1.00;;;;;;2617220;54;20361;-82
2022/08/12 14:03:32;;;;;;;6.53;6.00;;;34.10;1.00;;;;;;2617144;54;20117;-82
2022/08/12 14:09:19;;;;;;;6.40;6.00;;;33.80;1.00;;;;;;2616641;54;20367;-80
2022/08/12 14:15:07;;;;;;;6.40;5.90;;;34.40;1.00;;;;;;2616857;54;20118;-81
2022/08/12 14:21:00;;;;;;;6.50;6.03;;;34.00;1.00;;;;;;2617062;54;20463;-80
2022/08/12 14:26:47;;;;;;;6.00;5.70;;;33.90;1.00;;;;;;2615009;54;20398;-81
2022/08/12 14:32:35;;;;;;;6.50;6.00;;;33.80;1.00;;;;;;2616780;54;20137;-81
2022/08/12 14:35:38;;;;;;;7.23;6.73;;;33.90;1.00;;;;;;2616870;54;20511;-81
2022/08/12 14:38:20;;;;;;;9.67;6.60;;;33.90;1.00;;;;;;2617106;46;20176;-81
2022/08/12 14:44:07;;;;;;;6.33;5.87;;;34.60;1.00;;;;;;2616898;54;20456;-81
2022/08/12 14:49:54;;;;;;;6.23;5.73;;;34.00;1.00;;;;;;2616561;54;20139;-80
2022/08/12 14:55:44;;;;;;;6.70;6.30;;;35.00;1.00;;;;;;2616826;54;20142;-81
2022/08/12 15:01:37;;;;;;;7.33;6.27;;;35.60;1.00;;;;;;2616889;46;20461;-80
2022/08/12 15:07:26;;;;;;;6.57;6.17;;;34.70;1.00;;;;;;2616454;54;20396;-80
2022/08/12 15:13:16;;;;;;;6.30;5.80;;;34.80;1.00;;;;;;2617149;54;20367;-80
2022/08/12 15:19:03;;;;;;;6.57;6.03;;;35.10;1.00;;;;;;2616895;54;20381;-81
2022/08/12 15:24:51;;;;;;;7.00;6.10;;;34.80;1.00;;;;;;2616819;54;20145;-81
2022/08/12 15:27:17;;;;;;;6.10;5.70;;;35.30;1.00;;;;;;2616348;46;21743;-82
2022/08/12 15:29:43;;;;;;;7.50;6.33;;;34.70;1.00;;;;;;2616382;47;20483;-81
2022/08/12 15:35:30;;;;;;;7.10;6.70;;;35.00;1.00;;;;;;2616485;54;20190;-83
2022/08/12 15:41:21;;;;;;;6.30;6.00;;;35.60;1.00;;;;;;2616378;54;20150;-81
2022/08/12 15:47:08;;;;;;;7.03;6.63;;;35.70;1.00;;;;;;2616901;54;20374;-82
2022/08/12 15:52:57;;;;;;;5.93;5.60;;;35.70;1.00;;;;;;2616995;47;20705;-82
2022/08/12 15:58:46;;;;;;;6.20;5.77;;;35.50;1.00;;;;;;2616679;54;20376;-82
2022/08/12 16:04:35;;;;;;;6.23;5.73;;;36.10;1.00;;;;;;2616634;54;20360;-81
2022/08/12 16:10:27;;;;;;;6.73;6.23;;;35.50;1.00;;;;;;2616907;54;20960;-82
2022/08/12 16:16:15;;;;;;;6.20;5.90;;;36.50;1.00;;;;;;2616818;54;20395;-82
2022/08/12 16:22:02;;;;;;;11.07;6.20;;;35.30;1.00;;;;;;2616477;54;20133;-81
2022/08/12 16:27:50;;;;;;;6.50;6.10;;;35.60;1.00;;;;;;2616206;54;20135;-81
2022/08/12 16:33:43;;;;;;;7.00;6.30;;;35.30;1.00;;;;;;2616595;54;20380;-82
2022/08/12 16:39:35;;;;;;;7.40;6.80;;;34.70;1.00;;;;;;2616597;54;20397;-81
2022/08/12 16:45:23;;;;;;;6.80;6.20;;;35.10;1.00;;;;;;2617172;54;20425;-81
2022/08/12 16:51:11;;;;;;;6.53;6.03;;;35.40;1.00;;;;;;2617047;54;20410;-82
2022/08/12 16:57:00;;;;;;;6.73;6.00;;;35.00;1.00;;;;;;2617316;54;20378;-82
2022/08/12 17:02:47;;;;;;;6.57;5.80;;;34.60;1.00;;;;;;2618024;39;20774;-82
2022/08/12 17:08:36;;;;;;;6.50;5.90;;;33.10;1.00;;;;;;2617072;54;20140;-81
2022/08/12 17:14:24;;;;;;;6.87;6.37;;;30.70;1.00;;;;;;2616995;54;20384;-82
2022/08/12 17:20:12;;;;;;;6.63;6.23;;;30.50;1.00;;;;;;2617562;54;20205;-81
2022/08/12 17:26:00;;;;;;;7.53;6.93;;;30.10;1.00;;;;;;2617972;39;20746;-82
2022/08/12 17:28:28;;;;;;;6.37;5.97;;;30.00;1.00;;;;;;2616895;54;20958;-82
2022/08/12 17:30:54;;;;;;;7.43;6.90;;;29.90;1.00;;;;;;2617616;39;20781;-81
2022/08/12 17:36:41;;;;;;;7.10;6.40;;;29.70;1.00;;;;;;2617497;54;20380;-81
2022/08/12 17:42:29;;;;;;;7.13;6.43;;;29.50;1.00;;;;;;2617719;54;20676;-82
2022/08/12 17:48:18;;;;;;;8.10;7.40;;;29.30;1.00;;;;;;2617342;54;20391;-82
2022/08/12 17:54:08;;;;;;;8.03;5.90;;;29.10;1.00;;;;;;2617427;54;20451;-81
2022/08/12 17:59:56;;;;;;;7.37;6.73;;;29.00;1.00;;;;;;2617448;54;20384;-82
2022/08/12 18:05:45;;;;;;;7.83;6.00;;;28.90;1.00;;;;;;2617748;54;20424;-82
2022/08/12 18:17:45;;;;;;;11.50;10.70;;;28.60;1.00;;;;;;2617465;54;20918;-83
2022/08/12 18:23:32;;;;;;;10.67;9.97;;;28.40;1.00;;;;;;2617501;54;20386;-81
2022/08/12 18:33:00;;;;;;;21.47;19.90;;;28.10;1.00;;;;;;2617603;54;20449;-81
2022/08/12 18:38:47;;;;;;;27.03;24.40;;;27.90;1.00;;;;;;2616938;54;20493;-81
2022/08/12 18:44:34;;;;;;;12.90;11.90;;;27.60;1.00;;;;;;2617513;54;20202;-80
2022/08/12 18:50:23;;;;;;;8.30;7.70;;;27.20;1.00;;;;;;2617547;54;20125;-81
2022/08/12 18:56:10;;;;;;;12.13;7.90;;;26.90;1.00;;;;;;2616985;54;20715;-84
2022/08/12 19:01:58;;;;;;;8.13;7.53;;;26.70;1.00;;;;;;2617824;39;20511;-80
2022/08/12 19:07:51;;;;;;;10.93;9.83;;;26.40;1.00;;;;;;2617019;54;20365;-82
2022/08/12 19:17:19;;;;;;;11.63;10.70;;;25.60;1.00;;;;;;2616988;54;20364;-82
2022/08/12 19:23:07;;;;;;;13.63;12.30;;;25.20;1.00;;;;;;2617252;54;20466;-82
2022/08/12 19:28:56;;;;;;;10.57;9.57;;;24.80;1.00;;;;;;2616719;54;20980;-80
2022/08/12 19:34:52;;;;;;;10.90;9.90;;;24.50;1.00;;;;;;2616061;54;20478;-82
2022/08/12 19:40:41;;;;;;;9.70;8.10;;;24.50;1.00;;;;;;2617315;39;20806;-82
2022/08/12 19:46:29;;;;;;;8.20;7.40;;;24.20;1.00;;;;;;2616820;54;20364;-82
2022/08/12 19:52:18;;;;;;;11.20;9.23;;;24.20;1.00;;;;;;2617076;54;20379;-81
2022/08/12 20:04:51;;;;;;;10.63;8.77;;;24.70;1.00;;;;;;2617197;54;20388;-81
2022/08/12 20:10:45;;;;;;;7.20;6.70;;;24.70;1.00;;;;;;2618273;54;20403;-83
2022/08/12 20:16:35;;;;;;;7.97;7.30;;;24.60;1.00;;;;;;2617796;39;20781;-83
2022/08/12 20:22:24;;;;;;;7.40;7.00;;;24.40;1.00;;;;;;2617739;54;20942;-81
2022/08/12 20:28:11;;;;;;;7.23;6.63;;;24.60;1.00;;;;;;2617085;54;20406;-81
2022/08/12 20:33:59;;;;;;;6.90;6.50;;;24.10;1.00;;;;;;2617876;54;20114;-82
2022/08/12 20:37:01;;;;;;;8.13;7.43;;;24.00;1.00;;;;;;2617945;46;20447;-82
2022/08/12 20:39:29;;;;;;;8.37;7.57;;;23.80;1.00;;;;;;2617826;46;20421;-82
2022/08/12 20:45:16;;;;;;;7.73;7.23;;;23.40;1.00;;;;;;2618254;39;20787;-81
2022/08/12 20:51:03;;;;;;;11.90;10.80;;;23.10;1.00;;;;;;2617902;54;20125;-82
2022/08/12 20:56:51;;;;;;;8.37;7.70;;;22.80;1.00;;;;;;2618778;54;20178;-81
2022/08/12 21:02:42;;;;;;;17.30;15.90;;;22.50;1.00;;;;;;2619013;54;20274;-81
2022/08/12 21:08:30;;;;;;;9.40;8.50;;;22.10;1.00;;;;;;2618637;54;20413;-81
2022/08/12 21:14:18;;;;;;;8.60;7.80;;;21.70;1.00;;;;;;2618635;54;20362;-81
2022/08/12 21:20:07;;;;;;;8.43;7.63;;;21.50;1.00;;;;;;2618893;54;20890;-81
2022/08/12 21:25:55;;;;;;;9.17;8.33;;;21.30;1.00;;;;;;2617818;54;20947;-81
2022/08/12 21:31:44;;;;;;;9.80;9.10;;;21.00;1.00;;;;;;2617705;54;20417;-80
2022/08/12 21:37:32;;;;;;;10.03;9.23;;;20.80;1.00;;;;;;2617154;54;21969;-81
2022/08/12 21:43:19;;;;;;;10.90;9.20;;;20.70;1.00;;;;;;2618021;39;20519;-81
2022/08/12 21:49:08;;;;;;;12.20;8.73;;;20.70;1.00;;;;;;2617357;54;20164;-81
2022/08/12 21:54:58;;;;;;;8.70;8.00;;;20.50;1.10;;;;;;2617725;54;20401;-81
2022/08/12 22:00:46;;;;;;;11.10;8.73;;;20.30;2.20;;;;;;2618665;31;20816;-81
2022/08/12 22:09:55;;;;;;;8.87;8.17;;;20.00;3.60;;;;;;2617556;54;20389;-80
2022/08/12 22:15:42;;;;;;;11.93;10.93;;;19.90;4.10;;;;;;2617602;54;20377;-81
2022/08/12 22:21:29;;;;;;;9.90;9.00;;;19.90;7.90;;;;;;2617347;54;20221;-81
2022/08/12 22:27:17;;;;;;;9.77;8.87;;;19.70;9.40;;;;;;2618601;54;20426;-81
2022/08/12 22:33:07;;;;;;;10.73;9.80;;;19.70;9.40;;;;;;2618381;54;20146;-80
2022/08/12 22:48:55;;;;;;;10.90;9.80;;;19.30;13.20;;;;;;2618431;54;20396;-81
2022/08/12 22:54:42;;;;;;;10.67;9.77;;;19.10;14.80;;;;;;2617465;54;20127;-80
2022/08/12 23:00:31;;;;;;;14.80;13.57;;;19.00;15.70;;;;;;2617088;54;20970;-81
2022/08/12 23:06:22;;;;;;;23.73;21.40;;;18.90;18.30;;;;;;2617381;39;20766;-81
2022/08/12 23:12:10;;;;;;;37.37;33.47;;;18.90;21.40;;;;;;2617066;46;20491;-81
2022/08/12 23:17:57;;;;;;;40.13;35.87;;;18.70;20.50;;;;;;2617229;54;20400;-80
2022/08/12 23:23:47;;;;;;;25.93;23.07;;;18.60;23.00;;;;;;2618884;54;20150;-80
2022/08/12 23:29:35;;;;;;;18.50;16.90;;;18.50;22.60;;;;;;2618242;54;20437;-80
2022/08/12 23:35:23;;;;;;;17.47;15.97;;;18.30;26.60;;;;;;2618859;39;20766;-80
2022/08/12 23:41:14;;;;;;;13.73;12.33;;;18.20;29.00;;;;;;2617882;54;20165;-80
2022/08/12 23:44:02;;;;;;;15.57;13.37;;;18.10;29.40;;;;;;2618213;54;20402;-81
2022/08/12 23:46:28;;;;;;;13.70;12.50;;;18.10;29.90;;;;;;2617854;47;20436;-80
2022/08/12 23:52:18;;;;;;;14.10;11.10;;;18.00;32.60;;;;;;2618586;39;20535;-80
2022/08/12 23:58:08;;;;;;;19.53;16.77;;;18.30;27.50;;;;;;2618334;54;20368;-81
